sensor_id;sensor_type;location;lat;lon;timestamp;P1;durP1;ratioP1;P2;durP2;ratioP2
44304;SDS011;30019;50.576;8.568;2023-04-01T00:01:02;7.60;;;1.42;;
44304;SDS011;30019;50.576;8.568;2023-04-01T00:03:29;7.70;;;1.20;;
44304;SDS011;30019;50.576;8.568;2023-04-01T00:05:56;5.35;;;1.50;;
44304;SDS011;30019;50.576;8.568;2023-04-01T00:08:23;8.60;;;1.65;;
44304;SDS011;30019;50.576;8.568;2023-04-01T00:10:49;4.45;;;1.25;;
44304;SDS011;30019;50.576;8.568;2023-04-01T00:13:15;5.22;;;1.30;;
44304;SDS011;30019;50.576;8.568;2023-04-01T00:15:41;8.70;;;1.55;;
44304;SDS011;30019;50.576;8.568;2023-04-01T00:18:07;6.85;;;1.35;;
44304;SDS011;30019;50.576;8.568;2023-04-01T00:20:33;4.28;;;1.02;;
44304;SDS011;30019;50.576;8.568;2023-04-01T00:22:59;7.35;;;1.45;;
44304;SDS011;30019;50.576;8.568;2023-04-01T00:25:24;5.47;;;1.30;;
44304;SDS011;30019;50.576;8.568;2023-04-01T00:27:50;7.82;;;1.48;;
44304;SDS011;30019;50.576;8.568;2023-04-01T00:30:16;9.25;;;2.00;;
44304;SDS011;30019;50.576;8.568;2023-04-01T00:32:41;5.40;;;1.73;;
44304;SDS011;30019;50.576;8.568;2023-04-01T00:35:07;6.37;;;1.42;;
44304;SDS011;30019;50.576;8.568;2023-04-01T00:37:34;6.10;;;1.30;;
44304;SDS011;30019;50.576;8.568;2023-04-01T00:40:02;5.30;;;1.37;;
44304;SDS011;30019;50.576;8.568;2023-04-01T00:42:30;6.25;;;1.15;;
44304;SDS011;30019;50.576;8.568;2023-04-01T00:44:56;7.30;;;1.37;;
44304;SDS011;30019;50.576;8.568;2023-04-01T00:47:22;8.18;;;1.65;;
44304;SDS011;30019;50.576;8.568;2023-04-01T00:49:50;6.47;;;1.40;;
44304;SDS011;30019;50.576;8.568;2023-04-01T00:52:19;3.85;;;1.65;;
44304;SDS011;30019;50.576;8.568;2023-04-01T00:54:49;5.25;;;1.48;;
44304;SDS011;30019;50.576;8.568;2023-04-01T00:57:19;4.22;;;1.02;;
44304;SDS011;30019;50.576;8.568;2023-04-01T00:59:52;5.18;;;1.30;;
44304;SDS011;30019;50.576;8.568;2023-04-01T01:02:20;6.62;;;1.02;;
44304;SDS011;30019;50.576;8.568;2023-04-01T01:04:46;3.00;;;1.40;;
44304;SDS011;30019;50.576;8.568;2023-04-01T01:12:22;4.55;;;1.05;;
44304;SDS011;30019;50.576;8.568;2023-04-01T01:15:06;8.48;;;1.17;;
44304;SDS011;30019;50.576;8.568;2023-04-01T01:17:47;6.85;;;1.05;;
44304;SDS011;30019;50.576;8.568;2023-04-01T01:34:12;3.62;;;1.12;;
44304;SDS011;30019;50.576;8.568;2023-04-01T01:36:47;2.87;;;1.00;;
44304;SDS011;30019;50.576;8.568;2023-04-01T01:39:17;5.37;;;0.82;;
44304;SDS011;30019;50.576;8.568;2023-04-01T01:41:45;3.95;;;0.93;;
44304;SDS011;30019;50.576;8.568;2023-04-01T01:44:14;8.20;;;1.42;;
44304;SDS011;30019;50.576;8.568;2023-04-01T01:46:41;2.05;;;0.80;;
44304;SDS011;30019;50.576;8.568;2023-04-01T01:49:09;4.65;;;1.00;;
44304;SDS011;30019;50.576;8.568;2023-04-01T01:51:37;7.85;;;1.25;;
44304;SDS011;30019;50.576;8.568;2023-04-01T01:54:04;4.47;;;1.33;;
44304;SDS011;30019;50.576;8.568;2023-04-01T01:56:29;3.90;;;0.98;;
44304;SDS011;30019;50.576;8.568;2023-04-01T01:59:01;8.00;;;1.20;;
44304;SDS011;30019;50.576;8.568;2023-04-01T02:01:31;5.62;;;1.02;;
44304;SDS011;30019;50.576;8.568;2023-04-01T02:04:00;3.47;;;1.20;;
44304;SDS011;30019;50.576;8.568;2023-04-01T02:06:28;2.87;;;0.82;;
44304;SDS011;30019;50.576;8.568;2023-04-01T02:09:00;4.45;;;0.80;;
44304;SDS011;30019;50.576;8.568;2023-04-01T02:11:36;5.03;;;1.08;;
44304;SDS011;30019;50.576;8.568;2023-04-01T02:16:52;5.25;;;0.93;;
44304;SDS011;30019;50.576;8.568;2023-04-01T02:20:19;1.75;;;0.80;;
44304;SDS011;30019;50.576;8.568;2023-04-01T02:22:26;5.87;;;1.05;;
44304;SDS011;30019;50.576;8.568;2023-04-01T02:25:03;3.65;;;1.10;;
44304;SDS011;30019;50.576;8.568;2023-04-01T02:27:31;5.97;;;1.10;;
44304;SDS011;30019;50.576;8.568;2023-04-01T02:29:57;5.10;;;1.02;;
44304;SDS011;30019;50.576;8.568;2023-04-01T02:32:23;4.22;;;1.10;;
44304;SDS011;30019;50.576;8.568;2023-04-01T02:34:50;4.10;;;1.20;;
44304;SDS011;30019;50.576;8.568;2023-04-01T02:37:16;3.03;;;0.90;;
44304;SDS011;30019;50.576;8.568;2023-04-01T02:39:42;5.78;;;0.90;;
44304;SDS011;30019;50.576;8.568;2023-04-01T02:42:08;5.30;;;0.80;;
44304;SDS011;30019;50.576;8.568;2023-04-01T02:44:34;3.92;;;0.90;;
44304;SDS011;30019;50.576;8.568;2023-04-01T02:47:00;4.50;;;1.08;;
44304;SDS011;30019;50.576;8.568;2023-04-01T02:49:26;2.87;;;1.37;;
44304;SDS011;30019;50.576;8.568;2023-04-01T02:51:51;4.05;;;0.75;;
44304;SDS011;30019;50.576;8.568;2023-04-01T02:54:17;5.65;;;0.77;;
44304;SDS011;30019;50.576;8.568;2023-04-01T02:56:43;3.92;;;1.30;;
44304;SDS011;30019;50.576;8.568;2023-04-01T02:59:10;2.33;;;0.88;;
44304;SDS011;30019;50.576;8.568;2023-04-01T03:01:36;2.75;;;0.70;;
44304;SDS011;30019;50.576;8.568;2023-04-01T03:04:02;7.00;;;2.35;;
44304;SDS011;30019;50.576;8.568;2023-04-01T03:06:28;4.57;;;1.00;;
44304;SDS011;30019;50.576;8.568;2023-04-01T03:08:54;5.97;;;0.90;;
44304;SDS011;30019;50.576;8.568;2023-04-01T03:11:20;2.85;;;0.75;;
44304;SDS011;30019;50.576;8.568;2023-04-01T03:13:46;6.53;;;1.10;;
44304;SDS011;30019;50.576;8.568;2023-04-01T03:16:11;2.85;;;0.80;;
44304;SDS011;30019;50.576;8.568;2023-04-01T03:18:37;3.25;;;0.80;;
44304;SDS011;30019;50.576;8.568;2023-04-01T03:21:12;2.83;;;0.77;;
44304;SDS011;30019;50.576;8.568;2023-04-01T03:23:48;3.05;;;1.55;;
44304;SDS011;30019;50.576;8.568;2023-04-01T03:26:13;5.90;;;0.98;;
44304;SDS011;30019;50.576;8.568;2023-04-01T03:28:39;1.92;;;0.65;;
44304;SDS011;30019;50.576;8.568;2023-04-01T03:31:05;6.95;;;1.17;;
44304;SDS011;30019;50.576;8.568;2023-04-01T03:33:31;4.37;;;0.88;;
44304;SDS011;30019;50.576;8.568;2023-04-01T03:35:57;4.72;;;0.80;;
44304;SDS011;30019;50.576;8.568;2023-04-01T03:38:23;2.30;;;0.90;;
44304;SDS011;30019;50.576;8.568;2023-04-01T03:40:48;5.62;;;0.95;;
44304;SDS011;30019;50.576;8.568;2023-04-01T03:43:14;2.62;;;0.70;;
44304;SDS011;30019;50.576;8.568;2023-04-01T03:45:49;5.90;;;2.05;;
44304;SDS011;30019;50.576;8.568;2023-04-01T03:48:15;3.35;;;0.77;;
44304;SDS011;30019;50.576;8.568;2023-04-01T03:50:41;4.62;;;0.95;;
44304;SDS011;30019;50.576;8.568;2023-04-01T03:53:07;6.37;;;1.17;;
44304;SDS011;30019;50.576;8.568;2023-04-01T03:55:33;7.10;;;0.88;;
44304;SDS011;30019;50.576;8.568;2023-04-01T03:58:01;3.83;;;1.20;;
44304;SDS011;30019;50.576;8.568;2023-04-01T04:00:27;3.00;;;0.93;;
44304;SDS011;30019;50.576;8.568;2023-04-01T04:02:54;5.80;;;1.10;;
44304;SDS011;30019;50.576;8.568;2023-04-01T04:05:21;5.15;;;0.82;;
44304;SDS011;30019;50.576;8.568;2023-04-01T04:07:47;2.75;;;0.95;;
44304;SDS011;30019;50.576;8.568;2023-04-01T04:10:13;2.97;;;0.88;;
44304;SDS011;30019;50.576;8.568;2023-04-01T04:12:38;3.87;;;0.80;;
44304;SDS011;30019;50.576;8.568;2023-04-01T04:15:05;5.87;;;1.25;;
44304;SDS011;30019;50.576;8.568;2023-04-01T04:17:31;3.35;;;0.73;;
44304;SDS011;30019;50.576;8.568;2023-04-01T04:19:57;5.25;;;0.70;;
44304;SDS011;30019;50.576;8.568;2023-04-01T04:22:22;9.65;;;1.02;;
44304;SDS011;30019;50.576;8.568;2023-04-01T04:24:48;2.70;;;1.08;;
44304;SDS011;30019;50.576;8.568;2023-04-01T04:27:13;4.87;;;0.93;;
44304;SDS011;30019;50.576;8.568;2023-04-01T04:29:39;5.20;;;0.90;;
44304;SDS011;30019;50.576;8.568;2023-04-01T04:32:05;4.50;;;0.73;;
44304;SDS011;30019;50.576;8.568;2023-04-01T04:34:30;2.47;;;0.70;;
44304;SDS011;30019;50.576;8.568;2023-04-01T04:36:56;3.12;;;0.70;;
44304;SDS011;30019;50.576;8.568;2023-04-01T04:39:22;2.75;;;1.12;;
44304;SDS011;30019;50.576;8.568;2023-04-01T04:41:47;5.20;;;0.95;;
44304;SDS011;30019;50.576;8.568;2023-04-01T04:44:13;5.75;;;1.00;;
44304;SDS011;30019;50.576;8.568;2023-04-01T04:46:38;3.03;;;0.88;;
44304;SDS011;30019;50.576;8.568;2023-04-01T04:49:04;3.35;;;0.70;;
44304;SDS011;30019;50.576;8.568;2023-04-01T04:51:30;4.20;;;0.82;;
44304;SDS011;30019;50.576;8.568;2023-04-01T04:53:58;3.70;;;0.77;;
44304;SDS011;30019;50.576;8.568;2023-04-01T04:56:25;5.10;;;1.45;;
44304;SDS011;30019;50.576;8.568;2023-04-01T04:58:51;3.22;;;0.70;;
44304;SDS011;30019;50.576;8.568;2023-04-01T05:01:17;3.78;;;0.70;;
44304;SDS011;30019;50.576;8.568;2023-04-01T05:03:43;5.07;;;0.88;;
44304;SDS011;30019;50.576;8.568;2023-04-01T05:06:09;2.25;;;0.70;;
44304;SDS011;30019;50.576;8.568;2023-04-01T05:08:37;6.55;;;0.73;;
44304;SDS011;30019;50.576;8.568;2023-04-01T05:11:06;2.28;;;0.65;;
44304;SDS011;30019;50.576;8.568;2023-04-01T05:13:35;6.07;;;0.70;;
44304;SDS011;30019;50.576;8.568;2023-04-01T05:16:01;2.90;;;0.70;;
44304;SDS011;30019;50.576;8.568;2023-04-01T05:18:27;7.53;;;0.73;;
44304;SDS011;30019;50.576;8.568;2023-04-01T05:20:53;2.95;;;0.57;;
44304;SDS011;30019;50.576;8.568;2023-04-01T05:23:20;1.17;;;0.77;;
44304;SDS011;30019;50.576;8.568;2023-04-01T05:25:47;3.08;;;0.80;;
44304;SDS011;30019;50.576;8.568;2023-04-01T05:28:14;6.05;;;0.93;;
44304;SDS011;30019;50.576;8.568;2023-04-01T05:30:40;2.20;;;0.90;;
44304;SDS011;30019;50.576;8.568;2023-04-01T05:33:07;3.58;;;0.82;;
44304;SDS011;30019;50.576;8.568;2023-04-01T05:35:32;2.42;;;0.55;;
44304;SDS011;30019;50.576;8.568;2023-04-01T05:37:58;3.58;;;0.73;;
44304;SDS011;30019;50.576;8.568;2023-04-01T05:40:24;2.15;;;0.50;;
44304;SDS011;30019;50.576;8.568;2023-04-01T05:42:50;2.12;;;0.70;;
44304;SDS011;30019;50.576;8.568;2023-04-01T05:45:15;1.83;;;0.70;;
44304;SDS011;30019;50.576;8.568;2023-04-01T05:47:41;4.05;;;0.60;;
44304;SDS011;30019;50.576;8.568;2023-04-01T05:50:07;3.15;;;0.70;;
44304;SDS011;30019;50.576;8.568;2023-04-01T05:52:35;4.18;;;1.17;;
44304;SDS011;30019;50.576;8.568;2023-04-01T05:55:01;2.37;;;0.62;;
44304;SDS011;30019;50.576;8.568;2023-04-01T05:57:26;1.00;;;0.50;;
44304;SDS011;30019;50.576;8.568;2023-04-01T05:59:52;4.05;;;1.05;;
44304;SDS011;30019;50.576;8.568;2023-04-01T06:02:17;2.22;;;0.62;;
44304;SDS011;30019;50.576;8.568;2023-04-01T06:04:43;1.67;;;0.62;;
44304;SDS011;30019;50.576;8.568;2023-04-01T06:07:16;3.23;;;1.33;;
44304;SDS011;30019;50.576;8.568;2023-04-01T06:09:43;3.45;;;0.60;;
44304;SDS011;30019;50.576;8.568;2023-04-01T06:14:57;6.18;;;0.60;;
44304;SDS011;30019;50.576;8.568;2023-04-01T06:17:39;1.65;;;0.80;;
44304;SDS011;30019;50.576;8.568;2023-04-01T06:23:26;1.92;;;0.50;;
44304;SDS011;30019;50.576;8.568;2023-04-01T06:45:29;0.70;;;0.52;;
44304;SDS011;30019;50.576;8.568;2023-04-01T06:48:16;2.15;;;0.60;;
44304;SDS011;30019;50.576;8.568;2023-04-01T06:53:58;2.17;;;0.50;;
44304;SDS011;30019;50.576;8.568;2023-04-01T06:56:26;1.85;;;0.60;;
44304;SDS011;30019;50.576;8.568;2023-04-01T06:59:00;5.93;;;1.02;;
44304;SDS011;30019;50.576;8.568;2023-04-01T07:01:39;1.70;;;0.50;;
44304;SDS011;30019;50.576;8.568;2023-04-01T07:04:14;3.42;;;0.75;;
44304;SDS011;30019;50.576;8.568;2023-04-01T07:06:54;1.62;;;0.55;;
44304;SDS011;30019;50.576;8.568;2023-04-01T07:09:28;2.20;;;0.80;;
44304;SDS011;30019;50.576;8.568;2023-04-01T07:12:00;4.60;;;0.90;;
44304;SDS011;30019;50.576;8.568;2023-04-01T07:14:35;1.90;;;0.50;;
44304;SDS011;30019;50.576;8.568;2023-04-01T07:17:04;2.85;;;0.70;;
44304;SDS011;30019;50.576;8.568;2023-04-01T07:19:42;2.20;;;0.50;;
44304;SDS011;30019;50.576;8.568;2023-04-01T07:25:02;1.65;;;0.62;;
44304;SDS011;30019;50.576;8.568;2023-04-01T07:27:50;5.97;;;1.05;;
44304;SDS011;30019;50.576;8.568;2023-04-01T07:30:22;0.68;;;0.50;;
44304;SDS011;30019;50.576;8.568;2023-04-01T07:32:56;1.02;;;0.50;;
44304;SDS011;30019;50.576;8.568;2023-04-01T07:35:40;1.55;;;0.40;;
44304;SDS011;30019;50.576;8.568;2023-04-01T07:38:25;2.50;;;1.02;;
44304;SDS011;30019;50.576;8.568;2023-04-01T07:43:50;2.97;;;1.10;;
44304;SDS011;30019;50.576;8.568;2023-04-01T07:52:04;1.20;;;0.68;;
44304;SDS011;30019;50.576;8.568;2023-04-01T07:54:40;2.22;;;0.65;;
44304;SDS011;30019;50.576;8.568;2023-04-01T07:57:22;1.00;;;0.90;;
44304;SDS011;30019;50.576;8.568;2023-04-01T08:05:21;1.60;;;0.80;;
44304;SDS011;30019;50.576;8.568;2023-04-01T08:08:13;0.60;;;0.57;;
44304;SDS011;30019;50.576;8.568;2023-04-01T08:10:57;2.05;;;1.42;;
44304;SDS011;30019;50.576;8.568;2023-04-01T08:16:46;1.37;;;0.68;;
44304;SDS011;30019;50.576;8.568;2023-04-01T08:24:35;1.92;;;0.90;;
44304;SDS011;30019;50.576;8.568;2023-04-01T08:29:51;0.95;;;0.60;;
44304;SDS011;30019;50.576;8.568;2023-04-01T08:32:28;1.92;;;0.70;;
44304;SDS011;30019;50.576;8.568;2023-04-01T08:37:35;1.45;;;0.62;;
44304;SDS011;30019;50.576;8.568;2023-04-01T09:13:13;0.60;;;0.40;;
44304;SDS011;30019;50.576;8.568;2023-04-01T09:27:32;2.78;;;0.62;;
44304;SDS011;30019;50.576;8.568;2023-04-01T09:36:04;1.73;;;1.48;;
44304;SDS011;30019;50.576;8.568;2023-04-01T09:38:57;0.55;;;0.55;;
44304;SDS011;30019;50.576;8.568;2023-04-01T09:44:33;2.92;;;0.50;;
44304;SDS011;30019;50.576;8.568;2023-04-01T09:52:47;0.60;;;0.60;;
44304;SDS011;30019;50.576;8.568;2023-04-01T09:58:09;2.00;;;0.85;;
44304;SDS011;30019;50.576;8.568;2023-04-01T10:20:20;0.80;;;0.80;;
44304;SDS011;30019;50.576;8.568;2023-04-01T10:37:15;0.73;;;0.50;;
44304;SDS011;30019;50.576;8.568;2023-04-01T10:45:40;0.95;;;0.50;;
44304;SDS011;30019;50.576;8.568;2023-04-01T10:56:58;1.50;;;0.57;;
44304;SDS011;30019;50.576;8.568;2023-04-01T11:24:43;0.50;;;0.50;;
44304;SDS011;30019;50.576;8.568;2023-04-01T11:32:47;2.53;;;0.60;;
44304;SDS011;30019;50.576;8.568;2023-04-01T11:38:02;1.20;;;0.90;;
44304;SDS011;30019;50.576;8.568;2023-04-01T11:40:44;3.95;;;1.30;;
44304;SDS011;30019;50.576;8.568;2023-04-01T11:43:21;2.95;;;1.62;;
44304;SDS011;30019;50.576;8.568;2023-04-01T11:46:10;1.10;;;0.80;;
44304;SDS011;30019;50.576;8.568;2023-04-01T11:54:35;2.45;;;1.17;;
44304;SDS011;30019;50.576;8.568;2023-04-01T11:57:31;1.95;;;1.10;;
44304;SDS011;30019;50.576;8.568;2023-04-01T12:03:36;1.92;;;1.25;;
44304;SDS011;30019;50.576;8.568;2023-04-01T12:09:01;1.08;;;0.98;;
44304;SDS011;30019;50.576;8.568;2023-04-01T12:11:46;2.03;;;1.00;;
44304;SDS011;30019;50.576;8.568;2023-04-01T12:14:22;1.73;;;1.40;;
44304;SDS011;30019;50.576;8.568;2023-04-01T12:20:15;1.37;;;1.23;;
44304;SDS011;30019;50.576;8.568;2023-04-01T12:42:57;1.55;;;1.35;;
44304;SDS011;30019;50.576;8.568;2023-04-01T12:56:21;2.10;;;1.60;;
44304;SDS011;30019;50.576;8.568;2023-04-01T13:09:53;1.83;;;1.65;;
44304;SDS011;30019;50.576;8.568;2023-04-01T13:23:29;3.58;;;1.75;;
44304;SDS011;30019;50.576;8.568;2023-04-01T13:26:25;1.87;;;1.30;;
44304;SDS011;30019;50.576;8.568;2023-04-01T13:37:14;1.40;;;1.10;;
44304;SDS011;30019;50.576;8.568;2023-04-01T13:42:34;1.23;;;1.00;;
44304;SDS011;30019;50.576;8.568;2023-04-01T13:53:51;1.70;;;1.60;;
44304;SDS011;30019;50.576;8.568;2023-04-01T14:02:59;0.77;;;0.75;;
44304;SDS011;30019;50.576;8.568;2023-04-01T14:05:26;0.68;;;0.68;;
44304;SDS011;30019;50.576;8.568;2023-04-01T14:08:30;0.62;;;0.60;;
44304;SDS011;30019;50.576;8.568;2023-04-01T14:13:51;0.80;;;0.80;;
44304;SDS011;30019;50.576;8.568;2023-04-01T14:41:47;0.60;;;0.60;;
44304;SDS011;30019;50.576;8.568;2023-04-01T14:44:45;1.15;;;0.80;;
44304;SDS011;30019;50.576;8.568;2023-04-01T14:52:43;0.90;;;0.90;;
44304;SDS011;30019;50.576;8.568;2023-04-01T14:55:28;2.47;;;0.88;;
44304;SDS011;30019;50.576;8.568;2023-04-01T15:03:36;1.27;;;0.88;;
44304;SDS011;30019;50.576;8.568;2023-04-01T15:12:29;1.95;;;0.60;;
44304;SDS011;30019;50.576;8.568;2023-04-01T15:15:12;0.68;;;0.68;;
44304;SDS011;30019;50.576;8.568;2023-04-01T15:31:55;0.60;;;0.60;;
44304;SDS011;30019;50.576;8.568;2023-04-01T15:34:46;1.55;;;1.02;;
44304;SDS011;30019;50.576;8.568;2023-04-01T15:37:19;1.33;;;0.68;;
44304;SDS011;30019;50.576;8.568;2023-04-01T15:39:57;0.60;;;0.60;;
44304;SDS011;30019;50.576;8.568;2023-04-01T15:45:31;2.85;;;2.03;;
44304;SDS011;30019;50.576;8.568;2023-04-01T15:51:01;0.75;;;0.60;;
44304;SDS011;30019;50.576;8.568;2023-04-01T15:53:45;1.08;;;0.98;;
44304;SDS011;30019;50.576;8.568;2023-04-01T15:56:26;2.47;;;1.17;;
44304;SDS011;30019;50.576;8.568;2023-04-01T15:59:13;3.25;;;2.58;;
44304;SDS011;30019;50.576;8.568;2023-04-01T16:04:54;0.90;;;0.82;;
44304;SDS011;30019;50.576;8.568;2023-04-01T16:07:49;1.25;;;0.70;;
44304;SDS011;30019;50.576;8.568;2023-04-01T16:18:58;1.90;;;1.10;;
44304;SDS011;30019;50.576;8.568;2023-04-01T16:21:34;1.37;;;1.27;;
44304;SDS011;30019;50.576;8.568;2023-04-01T16:24:13;1.73;;;0.90;;
44304;SDS011;30019;50.576;8.568;2023-04-01T16:27:08;4.50;;;1.73;;
44304;SDS011;30019;50.576;8.568;2023-04-01T16:35:35;1.00;;;1.00;;
44304;SDS011;30019;50.576;8.568;2023-04-01T16:38:13;1.00;;;1.00;;
44304;SDS011;30019;50.576;8.568;2023-04-01T16:43:35;1.20;;;1.10;;
44304;SDS011;30019;50.576;8.568;2023-04-01T16:49:03;1.20;;;1.10;;
44304;SDS011;30019;50.576;8.568;2023-04-01T16:59:22;1.98;;;1.75;;
44304;SDS011;30019;50.576;8.568;2023-04-01T17:04:44;4.25;;;1.58;;
44304;SDS011;30019;50.576;8.568;2023-04-01T17:07:28;2.85;;;1.05;;
44304;SDS011;30019;50.576;8.568;2023-04-01T17:13:30;3.40;;;0.80;;
44304;SDS011;30019;50.576;8.568;2023-04-01T17:18:45;1.50;;;0.98;;
44304;SDS011;30019;50.576;8.568;2023-04-01T17:29:57;1.80;;;1.37;;
44304;SDS011;30019;50.576;8.568;2023-04-01T17:32:49;11.68;;;7.30;;
44304;SDS011;30019;50.576;8.568;2023-04-01T17:41:24;1.37;;;1.10;;
44304;SDS011;30019;50.576;8.568;2023-04-01T17:44:05;1.48;;;1.30;;
44304;SDS011;30019;50.576;8.568;2023-04-01T17:49:24;2.00;;;1.70;;
44304;SDS011;30019;50.576;8.568;2023-04-01T17:52:01;2.08;;;1.87;;
44304;SDS011;30019;50.576;8.568;2023-04-01T17:54:43;5.90;;;2.08;;
44304;SDS011;30019;50.576;8.568;2023-04-01T18:03:04;2.60;;;1.70;;
44304;SDS011;30019;50.576;8.568;2023-04-01T18:11:00;2.33;;;2.05;;
44304;SDS011;30019;50.576;8.568;2023-04-01T18:24:41;2.75;;;2.10;;
44304;SDS011;30019;50.576;8.568;2023-04-01T18:27:24;3.83;;;2.10;;
44304;SDS011;30019;50.576;8.568;2023-04-01T18:32:52;3.97;;;2.28;;
44304;SDS011;30019;50.576;8.568;2023-04-01T18:38:15;3.80;;;1.58;;
44304;SDS011;30019;50.576;8.568;2023-04-01T18:49:16;5.72;;;3.17;;
44304;SDS011;30019;50.576;8.568;2023-04-01T18:51:53;3.05;;;1.77;;
44304;SDS011;30019;50.576;8.568;2023-04-01T18:57:14;1.40;;;1.30;;
44304;SDS011;30019;50.576;8.568;2023-04-01T18:59:50;1.45;;;1.30;;
44304;SDS011;30019;50.576;8.568;2023-04-01T19:02:37;2.12;;;1.23;;
44304;SDS011;30019;50.576;8.568;2023-04-01T19:05:20;1.50;;;1.40;;
44304;SDS011;30019;50.576;8.568;2023-04-01T19:07:52;3.85;;;1.00;;
44304;SDS011;30019;50.576;8.568;2023-04-01T19:15:45;1.27;;;1.17;;
44304;SDS011;30019;50.576;8.568;2023-04-01T19:32:43;3.03;;;2.28;;
44304;SDS011;30019;50.576;8.568;2023-04-01T19:35:33;4.22;;;2.90;;
44304;SDS011;30019;50.576;8.568;2023-04-01T19:38:28;2.00;;;1.85;;
44304;SDS011;30019;50.576;8.568;2023-04-01T19:40:57;2.05;;;1.92;;
44304;SDS011;30019;50.576;8.568;2023-04-01T19:46:36;1.73;;;1.62;;
44304;SDS011;30019;50.576;8.568;2023-04-01T19:49:20;1.42;;;1.33;;
44304;SDS011;30019;50.576;8.568;2023-04-01T19:51:59;1.60;;;1.50;;
44304;SDS011;30019;50.576;8.568;2023-04-01T19:57:32;1.70;;;1.60;;
44304;SDS011;30019;50.576;8.568;2023-04-01T20:05:38;1.60;;;1.50;;
44304;SDS011;30019;50.576;8.568;2023-04-01T20:13:42;1.95;;;1.85;;
44304;SDS011;30019;50.576;8.568;2023-04-01T20:19:11;4.30;;;1.90;;
44304;SDS011;30019;50.576;8.568;2023-04-01T20:21:41;1.90;;;1.80;;
44304;SDS011;30019;50.576;8.568;2023-04-01T20:24:26;1.65;;;1.55;;
44304;SDS011;30019;50.576;8.568;2023-04-01T20:27:09;2.17;;;1.50;;
44304;SDS011;30019;50.576;8.568;2023-04-01T20:39:14;3.47;;;1.70;;
44304;SDS011;30019;50.576;8.568;2023-04-01T20:44:02;3.12;;;1.40;;
44304;SDS011;30019;50.576;8.568;2023-04-01T20:46:48;2.15;;;1.73;;
44304;SDS011;30019;50.576;8.568;2023-04-01T20:55:13;1.90;;;1.40;;
44304;SDS011;30019;50.576;8.568;2023-04-01T21:01:01;1.08;;;1.05;;
44304;SDS011;30019;50.576;8.568;2023-04-01T21:06:17;1.08;;;1.08;;
44304;SDS011;30019;50.576;8.568;2023-04-01T21:15:02;2.65;;;1.45;;
44304;SDS011;30019;50.576;8.568;2023-04-01T21:17:42;1.50;;;1.40;;
44304;SDS011;30019;50.576;8.568;2023-04-01T21:26:02;2.25;;;1.73;;
44304;SDS011;30019;50.576;8.568;2023-04-01T21:45:16;2.87;;;1.48;;
44304;SDS011;30019;50.576;8.568;2023-04-01T22:03:02;1.60;;;1.45;;
44304;SDS011;30019;50.576;8.568;2023-04-01T22:05:46;2.08;;;1.45;;
44304;SDS011;30019;50.576;8.568;2023-04-01T22:13:28;1.77;;;1.50;;
44304;SDS011;30019;50.576;8.568;2023-04-01T22:22:06;2.53;;;1.83;;
44304;SDS011;30019;50.576;8.568;2023-04-01T22:24:39;1.80;;;1.70;;
44304;SDS011;30019;50.576;8.568;2023-04-01T22:27:14;3.15;;;1.92;;
44304;SDS011;30019;50.576;8.568;2023-04-01T22:29:56;3.60;;;1.60;;
44304;SDS011;30019;50.576;8.568;2023-04-01T22:32:36;2.45;;;1.73;;
44304;SDS011;30019;50.576;8.568;2023-04-01T22:37:40;2.95;;;1.90;;
44304;SDS011;30019;50.576;8.568;2023-04-01T22:40:27;4.35;;;1.70;;
44304;SDS011;30019;50.576;8.568;2023-04-01T22:42:59;3.65;;;1.77;;
44304;SDS011;30019;50.576;8.568;2023-04-01T22:45:44;1.80;;;1.70;;
44304;SDS011;30019;50.576;8.568;2023-04-01T22:48:44;2.03;;;1.90;;
44304;SDS011;30019;50.576;8.568;2023-04-01T22:51:22;1.87;;;1.77;;
44304;SDS011;30019;50.576;8.568;2023-04-01T22:54:00;2.40;;;2.10;;
44304;SDS011;30019;50.576;8.568;2023-04-01T22:56:48;3.53;;;2.15;;
44304;SDS011;30019;50.576;8.568;2023-04-01T23:02:21;3.05;;;2.60;;
44304;SDS011;30019;50.576;8.568;2023-04-01T23:05:12;3.00;;;2.70;;
44304;SDS011;30019;50.576;8.568;2023-04-01T23:07:50;3.17;;;2.70;;
44304;SDS011;30019;50.576;8.568;2023-04-01T23:10:50;2.87;;;2.67;;
44304;SDS011;30019;50.576;8.568;2023-04-01T23:13:22;2.60;;;2.40;;
44304;SDS011;30019;50.576;8.568;2023-04-01T23:15:54;5.18;;;2.53;;
44304;SDS011;30019;50.576;8.568;2023-04-01T23:18:22;2.90;;;2.70;;
44304;SDS011;30019;50.576;8.568;2023-04-01T23:21:14;3.35;;;2.85;;
44304;SDS011;30019;50.576;8.568;2023-04-01T23:24:03;3.12;;;2.83;;
44304;SDS011;30019;50.576;8.568;2023-04-01T23:27:11;6.93;;;3.72;;
44304;SDS011;30019;50.576;8.568;2023-04-01T23:30:00;7.95;;;3.50;;
44304;SDS011;30019;50.576;8.568;2023-04-01T23:32:26;3.95;;;3.55;;
44304;SDS011;30019;50.576;8.568;2023-04-01T23:34:53;4.57;;;3.28;;
44304;SDS011;30019;50.576;8.568;2023-04-01T23:37:21;3.80;;;3.40;;
44304;SDS011;30019;50.576;8.568;2023-04-01T23:39:49;3.40;;;3.10;;
44304;SDS011;30019;50.576;8.568;2023-04-01T23:42:19;4.32;;;3.92;;
44304;SDS011;30019;50.576;8.568;2023-04-01T23:44:55;4.28;;;3.80;;
44304;SDS011;30019;50.576;8.568;2023-04-01T23:47:24;4.28;;;3.92;;
44304;SDS011;30019;50.576;8.568;2023-04-01T23:49:58;4.20;;;3.80;;
44304;SDS011;30019;50.576;8.568;2023-04-01T23:52:40;5.20;;;4.20;;
44304;SDS011;30019;50.576;8.568;2023-04-01T23:55:13;4.57;;;3.83;;
44304;SDS011;30019;50.576;8.568;2023-04-01T23:58:00;4.47;;;3.85;;
